createdAt,value
2023-03-04T00:00:49.727Z,20.50
2023-03-04T00:01:48.750Z,20.49
2023-03-04T00:02:49.767Z,20.47
2023-03-04T00:03:49.709Z,20.50
2023-03-04T00:04:49.691Z,20.50
2023-03-04T00:05:49.759Z,20.50
2023-03-04T00:06:49.674Z,20.49
2023-03-04T00:07:49.669Z,20.47
2023-03-04T00:08:49.670Z,20.50
2023-03-04T00:09:48.694Z,20.49
2023-03-04T00:10:49.699Z,20.50
2023-03-04T00:11:49.692Z,20.49
2023-03-04T00:12:49.662Z,20.52
2023-03-04T00:13:49.660Z,20.47
2023-03-04T00:14:49.644Z,20.49
2023-03-04T00:15:49.630Z,20.49
2023-03-04T00:16:48.613Z,20.49
2023-03-04T00:17:48.632Z,20.46
2023-03-04T00:18:49.612Z,20.46
2023-03-04T00:19:48.607Z,20.53
2023-03-04T00:20:48.613Z,20.49
2023-03-04T00:21:48.596Z,20.46
2023-03-04T00:22:49.599Z,20.46
2023-03-04T00:23:49.564Z,20.49
2023-03-04T00:24:49.558Z,20.46
2023-03-04T00:25:48.566Z,20.49
2023-03-04T00:26:49.589Z,20.52
2023-03-04T00:27:48.544Z,20.49
2023-03-04T00:28:49.556Z,20.52
2023-03-04T00:29:49.536Z,20.45
2023-03-04T00:30:49.521Z,20.43
2023-03-04T00:31:48.639Z,20.47
2023-03-04T00:32:49.508Z,20.46
2023-03-04T00:33:48.525Z,20.50
2023-03-04T00:34:49.518Z,20.46
2023-03-04T00:35:49.617Z,20.47
2023-03-04T00:36:48.490Z,20.50
2023-03-04T00:37:49.478Z,20.46
2023-03-04T00:38:48.495Z,20.49
2023-03-04T00:39:49.477Z,20.47
2023-03-04T00:40:49.451Z,20.50
2023-03-04T00:41:48.457Z,20.45
2023-03-04T00:42:48.482Z,20.47
2023-03-04T00:43:49.446Z,20.46
2023-03-04T00:44:49.426Z,20.43
2023-03-04T00:45:49.453Z,20.46
2023-03-04T00:46:49.421Z,20.47
2023-03-04T00:47:48.398Z,20.47
2023-03-04T00:48:49.404Z,20.43
2023-03-04T00:49:48.380Z,20.45
2023-03-04T00:50:49.374Z,20.46
2023-03-04T00:51:49.367Z,20.46
2023-03-04T00:52:48.367Z,20.43
2023-03-04T00:53:49.380Z,20.47
2023-03-04T00:54:48.391Z,20.42
2023-03-04T00:55:49.391Z,20.46
2023-03-04T00:56:49.417Z,20.42
2023-03-04T00:57:49.501Z,20.42
2023-03-04T00:58:49.485Z,20.50
2023-03-04T00:59:49.460Z,20.46
2023-03-04T01:00:49.477Z,20.46
2023-03-04T01:01:49.494Z,20.45
2023-03-04T01:02:49.607Z,20.42
2023-03-04T01:03:49.536Z,20.40
2023-03-04T01:04:49.544Z,20.40
2023-03-04T01:05:49.558Z,20.39
2023-03-04T01:06:49.595Z,20.40
2023-03-04T01:07:49.604Z,20.52
2023-03-04T01:08:48.683Z,20.39
2023-03-04T01:09:48.639Z,20.46
2023-03-04T01:10:48.661Z,20.45
2023-03-04T01:11:49.685Z,20.45
2023-03-04T01:12:49.693Z,20.46
2023-03-04T01:13:49.782Z,20.42
2023-03-04T01:14:50.714Z,20.42
2023-03-04T01:15:49.779Z,20.42
2023-03-04T01:16:49.893Z,20.42
2023-03-04T01:17:49.955Z,20.40
2023-03-04T01:18:49.831Z,20.40
2023-03-04T01:19:49.876Z,20.38
2023-03-04T01:20:49.888Z,20.39
2023-03-04T01:21:49.899Z,20.39
2023-03-04T01:22:49.910Z,20.36
2023-03-04T01:23:49.938Z,20.39
2023-03-04T01:24:49.979Z,20.42
2023-03-04T01:25:49.998Z,20.42
2023-03-04T01:26:50.002Z,20.40
2023-03-04T01:27:50.025Z,20.39
2023-03-04T01:28:50.043Z,20.39
2023-03-04T01:29:49.071Z,20.40
2023-03-04T01:30:50.197Z,20.33
2023-03-04T01:31:50.103Z,20.38
2023-03-04T01:32:49.142Z,20.43
2023-03-04T01:33:49.157Z,20.38
2023-03-04T01:34:50.175Z,20.42
2023-03-04T01:35:50.237Z,20.42
2023-03-04T01:36:50.246Z,20.42
2023-03-04T01:37:50.236Z,20.42
2023-03-04T01:38:50.260Z,20.43
2023-03-04T01:39:50.296Z,20.40
2023-03-04T01:40:50.310Z,20.40
2023-03-04T01:41:50.349Z,20.42
2023-03-04T01:42:50.387Z,20.40
2023-03-04T01:43:50.384Z,20.38
2023-03-04T01:44:50.414Z,20.40
2023-03-04T01:45:50.467Z,20.38
2023-03-04T01:46:50.488Z,20.38
2023-03-04T01:47:50.491Z,20.35
2023-03-04T01:48:50.575Z,20.38
2023-03-04T01:49:49.546Z,20.38
2023-03-04T01:50:50.570Z,20.40
2023-03-04T01:51:50.595Z,20.35
2023-03-04T01:52:51.560Z,20.38
2023-03-04T01:53:50.638Z,20.35
2023-03-04T01:54:50.692Z,20.39
2023-03-04T01:55:50.703Z,20.33
2023-03-04T01:56:50.730Z,20.29
2023-03-04T01:57:50.764Z,20.36
2023-03-04T01:58:50.779Z,20.38
2023-03-04T01:59:50.922Z,20.35
2023-03-04T02:00:50.835Z,20.38
2023-03-04T02:01:50.944Z,20.38
2023-03-04T02:02:50.904Z,20.36
2023-03-04T02:03:50.916Z,20.35
2023-03-04T02:04:50.946Z,20.33
2023-03-04T02:05:50.958Z,20.33
2023-03-04T02:06:49.964Z,20.35
2023-03-04T02:07:50.994Z,20.35
2023-03-04T02:08:51.032Z,20.33
2023-03-04T02:09:51.085Z,20.40
2023-03-04T02:10:51.093Z,20.38
2023-03-04T02:11:50.120Z,20.33
2023-03-04T02:12:50.133Z,20.35
2023-03-04T02:13:50.171Z,20.28
2023-03-04T02:14:51.209Z,20.32
2023-03-04T02:15:51.278Z,20.33
2023-03-04T02:16:51.238Z,20.35
2023-03-04T02:17:51.271Z,20.36
2023-03-04T02:18:51.340Z,20.35
2023-03-04T02:19:51.343Z,20.33
2023-03-04T02:20:50.964Z,20.31
2023-03-04T02:21:52.748Z,20.29
2023-03-04T02:22:51.465Z,20.36
2023-03-04T02:23:50.499Z,20.28
2023-03-04T02:24:51.553Z,20.32
2023-03-04T02:25:51.573Z,20.32
2023-03-04T02:26:51.591Z,20.29
2023-03-04T02:27:51.616Z,20.29
2023-03-04T02:28:50.660Z,20.31
2023-03-04T02:29:51.678Z,20.29
2023-03-04T02:30:50.682Z,20.29
2023-03-04T02:31:51.710Z,20.35
2023-03-04T02:32:50.758Z,20.28
2023-03-04T02:33:51.755Z,20.27
2023-03-04T02:34:51.850Z,20.33
2023-03-04T02:35:51.918Z,20.28
2023-03-04T02:36:51.829Z,20.33
2023-03-04T02:37:51.833Z,20.29
2023-03-04T02:38:51.860Z,20.24
2023-03-04T02:39:50.881Z,20.29
2023-03-04T02:40:51.929Z,20.27
2023-03-04T02:41:50.930Z,20.32
2023-03-04T02:42:51.943Z,20.29
2023-03-04T02:43:51.978Z,20.33
2023-03-04T02:44:52.026Z,20.31
2023-03-04T02:45:52.044Z,20.28
2023-03-04T02:46:52.146Z,20.28
2023-03-04T02:47:52.088Z,20.29
2023-03-04T02:48:52.104Z,20.28
2023-03-04T02:49:52.134Z,20.29
2023-03-04T02:50:52.231Z,20.27
2023-03-04T02:51:52.175Z,20.31
2023-03-04T02:52:52.210Z,20.33
2023-03-04T02:53:52.233Z,20.27
2023-03-04T02:54:52.264Z,20.25
2023-03-04T02:55:52.298Z,20.31
2023-03-04T02:56:51.331Z,20.31
2023-03-04T02:57:52.376Z,20.28
2023-03-04T02:58:51.400Z,20.31
2023-03-04T02:59:51.430Z,20.27
2023-03-04T03:00:52.502Z,20.25
2023-03-04T03:01:51.540Z,20.28
2023-03-04T03:02:52.565Z,20.27
2023-03-04T03:03:52.580Z,20.29
2023-03-04T03:04:51.609Z,20.32
2023-03-04T03:05:51.629Z,20.25
2023-03-04T03:06:51.669Z,20.22
2023-03-04T03:07:52.700Z,20.22
2023-03-04T03:08:51.692Z,20.28
2023-03-04T03:09:51.716Z,20.31
2023-03-04T03:10:52.753Z,20.28
2023-03-04T03:11:52.798Z,20.27
2023-03-04T03:12:52.824Z,20.29
2023-03-04T03:13:52.840Z,20.25
2023-03-04T03:14:51.869Z,20.24
2023-03-04T03:15:51.966Z,20.24
2023-03-04T03:16:52.957Z,20.22
2023-03-04T03:17:52.985Z,20.19
2023-03-04T03:18:53.015Z,20.22
2023-03-04T03:19:53.048Z,20.28
2023-03-04T03:20:53.234Z,20.28
2023-03-04T03:21:53.124Z,20.27
2023-03-04T03:22:53.176Z,20.29
2023-03-04T03:23:53.187Z,20.29
2023-03-04T03:24:53.207Z,20.24
2023-03-04T03:25:53.235Z,20.27
2023-03-04T03:26:53.278Z,20.22
2023-03-04T03:27:52.304Z,20.25
2023-03-04T03:28:53.334Z,20.27
2023-03-04T03:29:53.371Z,20.24
2023-03-04T03:30:53.435Z,20.22
2023-03-04T03:31:53.488Z,20.18
2023-03-04T03:32:53.479Z,20.25
2023-03-04T03:33:52.515Z,20.22
2023-03-04T03:34:53.562Z,20.25
2023-03-04T03:35:53.716Z,20.21
2023-03-04T03:36:53.657Z,20.19
2023-03-04T03:37:53.690Z,20.24
2023-03-04T03:38:53.745Z,20.22
2023-03-04T03:39:53.821Z,20.24
2023-03-04T03:40:53.801Z,20.22
2023-03-04T03:41:53.855Z,20.22
2023-03-04T03:42:53.879Z,20.25
2023-03-04T03:43:53.948Z,20.21
2023-03-04T03:44:53.982Z,20.18
2023-03-04T03:45:54.064Z,20.18
2023-03-04T03:46:54.085Z,20.18
2023-03-04T03:47:53.087Z,20.17
2023-03-04T03:48:54.125Z,20.22
2023-03-04T03:49:53.178Z,20.21
2023-03-04T03:50:53.201Z,20.22
2023-03-04T03:51:54.242Z,20.21
2023-03-04T03:52:54.283Z,20.24
2023-03-04T03:53:53.327Z,20.18
2023-03-04T03:54:54.400Z,20.17
2023-03-04T03:55:53.444Z,20.21
2023-03-04T03:56:54.448Z,20.18
2023-03-04T03:57:53.529Z,20.17
2023-03-04T03:58:54.581Z,20.14
2023-03-04T03:59:54.624Z,20.21
2023-03-04T04:00:57.886Z,20.21
2023-03-04T04:01:53.789Z,20.18
2023-03-04T04:02:53.667Z,20.17
2023-03-04T04:03:54.639Z,20.24
2023-03-04T04:04:53.630Z,20.17
2023-03-04T04:05:53.616Z,20.19
2023-03-04T04:06:54.613Z,20.17
2023-03-04T04:07:54.172Z,20.17
2023-03-04T04:08:54.604Z,20.15
2023-03-04T04:09:54.591Z,20.15
2023-03-04T04:10:53.627Z,20.15
2023-03-04T04:11:53.581Z,20.11
2023-03-04T04:12:54.579Z,20.21
2023-03-04T04:13:54.577Z,20.17
2023-03-04T04:14:54.045Z,20.15
2023-03-04T04:15:53.576Z,20.18
2023-03-04T04:16:54.608Z,20.19
2023-03-04T04:17:53.550Z,20.17
2023-03-04T04:18:54.540Z,20.19
2023-03-04T04:19:54.526Z,20.12
2023-03-04T04:20:54.582Z,20.18
2023-03-04T04:21:54.622Z,20.15
2023-03-04T04:22:53.676Z,20.15
2023-03-04T04:23:53.720Z,20.14
2023-03-04T04:24:54.774Z,20.09
2023-03-04T04:25:54.808Z,20.11
2023-03-04T04:26:54.895Z,20.09
2023-03-04T04:27:53.914Z,20.11
2023-03-04T04:28:54.966Z,20.11
2023-03-04T04:29:55.030Z,20.14
2023-03-04T04:30:55.092Z,20.09
2023-03-04T04:31:55.204Z,20.09
2023-03-04T04:32:55.136Z,20.08
2023-03-04T04:33:54.190Z,20.14
2023-03-04T04:34:55.264Z,20.11
2023-03-04T04:35:55.366Z,20.15
2023-03-04T04:36:55.303Z,20.11
2023-03-04T04:37:55.402Z,20.09
2023-03-04T04:38:55.377Z,20.12
2023-03-04T04:39:55.502Z,20.12
2023-03-04T04:40:55.484Z,20.11
2023-03-04T04:41:55.525Z,20.09
2023-03-04T04:42:55.614Z,20.08
2023-03-04T04:43:54.641Z,20.12
2023-03-04T04:44:55.684Z,20.09
2023-03-04T04:45:55.799Z,20.09
2023-03-04T04:46:55.815Z,20.09
2023-03-04T04:47:55.859Z,20.09
2023-03-04T04:48:54.905Z,20.14
2023-03-04T04:49:55.946Z,20.11
2023-03-04T04:50:56.000Z,20.08
2023-03-04T04:51:56.053Z,20.11
2023-03-04T04:52:56.100Z,20.11
2023-03-04T04:53:56.151Z,20.12
2023-03-04T04:54:56.195Z,20.09
2023-03-04T04:55:56.245Z,20.12
2023-03-04T04:56:55.291Z,20.11
2023-03-04T04:57:56.353Z,20.04
2023-03-04T04:58:56.421Z,20.07
2023-03-04T04:59:56.458Z,20.12
2023-03-04T05:00:56.589Z,20.08
2023-03-04T05:01:56.553Z,20.09
2023-03-04T05:02:56.639Z,20.14
2023-03-04T05:03:56.636Z,20.07
2023-03-04T05:04:56.677Z,20.08
2023-03-04T05:05:55.711Z,20.07
2023-03-04T05:06:56.757Z,20.07
2023-03-04T05:07:56.812Z,20.08
2023-03-04T05:08:55.861Z,20.07
2023-03-04T05:09:55.905Z,20.07
2023-03-04T05:10:56.962Z,20.04
2023-03-04T05:11:57.035Z,20.00
2023-03-04T05:12:57.027Z,19.97
2023-03-04T05:13:57.082Z,19.98
2023-03-04T05:14:56.586Z,20.01
2023-03-04T05:15:56.209Z,20.08
2023-03-04T05:16:57.245Z,20.01
2023-03-04T05:17:57.323Z,20.02
2023-03-04T05:18:56.332Z,20.05
2023-03-04T05:19:57.387Z,20.01
2023-03-04T05:20:57.473Z,20.00
2023-03-04T05:21:56.499Z,20.05
2023-03-04T05:22:57.575Z,19.98
2023-03-04T05:23:57.620Z,20.02
2023-03-04T05:24:56.690Z,20.02
2023-03-04T05:25:57.754Z,19.98
2023-03-04T05:26:57.889Z,19.97
2023-03-04T05:27:57.852Z,20.00
2023-03-04T05:28:56.923Z,20.00
2023-03-04T05:29:56.973Z,19.98
2023-03-04T05:30:58.118Z,20.00
2023-03-04T05:31:58.166Z,20.00
2023-03-04T05:32:57.142Z,20.01
2023-03-04T05:33:58.198Z,19.98
2023-03-04T05:34:58.262Z,19.97
2023-03-04T05:35:58.382Z,19.98
2023-03-04T05:36:58.379Z,19.98
2023-03-04T05:37:58.434Z,19.94
2023-03-04T05:38:58.467Z,20.01
2023-03-04T05:39:58.524Z,19.98
2023-03-04T05:40:58.615Z,19.98
2023-03-04T05:41:58.608Z,19.97
2023-03-04T05:42:58.681Z,19.98
2023-03-04T05:43:58.755Z,19.97
2023-03-04T05:44:58.783Z,19.97
2023-03-04T05:45:58.977Z,19.94
2023-03-04T05:46:58.906Z,19.94
2023-03-04T05:47:58.933Z,19.95
2023-03-04T05:48:59.032Z,19.95
2023-03-04T05:49:59.079Z,19.95
2023-03-04T05:50:59.121Z,19.98
2023-03-04T05:51:59.162Z,19.97
2023-03-04T05:52:59.213Z,19.91
2023-03-04T05:53:59.288Z,19.91
2023-03-04T05:54:59.343Z,19.94
2023-03-04T05:55:59.449Z,19.92
2023-03-04T05:56:59.464Z,19.92
2023-03-04T05:57:59.520Z,19.92
2023-03-04T05:58:59.591Z,19.97
2023-03-04T05:59:59.657Z,19.91
2023-03-04T06:00:59.726Z,19.94
2023-03-04T06:01:59.782Z,19.91
2023-03-04T06:02:59.917Z,19.90
2023-03-04T06:04:00.005Z,19.97
2023-03-04T06:05:00.020Z,19.95
2023-03-04T06:05:59.013Z,19.95
2023-03-04T06:07:00.143Z,19.94
2023-03-04T06:07:59.152Z,19.91
2023-03-04T06:09:00.211Z,19.90
2023-03-04T06:09:59.256Z,19.95
2023-03-04T06:11:00.314Z,19.90
2023-03-04T06:11:59.379Z,19.88
2023-03-04T06:13:00.440Z,19.92
2023-03-04T06:14:00.561Z,19.88
2023-03-04T06:15:00.576Z,19.90
2023-03-04T06:16:00.749Z,19.92
2023-03-04T06:17:00.382Z,19.94
2023-03-04T06:18:00.761Z,19.91
2023-03-04T06:19:00.840Z,19.95
2023-03-04T06:20:00.891Z,19.90
2023-03-04T06:21:00.944Z,19.91
2023-03-04T06:22:01.005Z,19.98
2023-03-04T06:23:01.076Z,19.88
2023-03-04T06:24:01.130Z,19.87
2023-03-04T06:25:00.176Z,19.85
2023-03-04T06:26:00.247Z,19.87
2023-03-04T06:27:01.377Z,19.88
2023-03-04T06:28:01.375Z,19.92
2023-03-04T06:29:01.428Z,19.84
2023-03-04T06:30:01.499Z,19.88
2023-03-04T06:31:01.823Z,19.82
2023-03-04T06:32:01.690Z,19.92
2023-03-04T06:33:00.664Z,19.85
2023-03-04T06:34:01.744Z,19.87
2023-03-04T06:35:01.841Z,19.87
2023-03-04T06:36:01.860Z,19.84
2023-03-04T06:37:01.930Z,19.84
2023-03-04T06:38:01.959Z,19.87
2023-03-04T06:39:02.039Z,19.87
2023-03-04T06:40:02.072Z,19.85
2023-03-04T06:41:02.129Z,19.88
2023-03-04T06:42:01.251Z,19.88
2023-03-04T06:43:02.251Z,19.87
2023-03-04T06:44:02.338Z,19.87
2023-03-04T06:45:01.438Z,19.88
2023-03-04T06:46:02.431Z,19.92
2023-03-04T06:47:02.642Z,19.92
2023-03-04T06:48:02.541Z,19.88
2023-03-04T06:49:02.617Z,19.92
2023-03-04T06:50:01.775Z,19.88
2023-03-04T06:51:02.758Z,19.84
2023-03-04T06:52:02.786Z,19.80
2023-03-04T06:53:02.862Z,19.84
2023-03-04T06:54:02.913Z,19.84
2023-03-04T06:55:02.977Z,19.85
2023-03-04T06:56:03.053Z,19.88
2023-03-04T06:57:03.119Z,19.87
2023-03-04T06:58:03.243Z,19.82
2023-03-04T06:59:03.228Z,19.84
2023-03-04T07:00:03.300Z,19.87
2023-03-04T07:01:03.429Z,19.82
2023-03-04T07:02:02.419Z,19.78
2023-03-04T07:03:03.461Z,19.91
2023-03-04T07:04:02.579Z,19.81
2023-03-04T07:05:03.588Z,19.81
2023-03-04T07:06:03.645Z,19.82
2023-03-04T07:07:02.716Z,19.78
2023-03-04T07:08:03.773Z,19.81
2023-03-04T07:09:03.827Z,19.84
2023-03-04T07:10:02.875Z,19.82
2023-03-04T07:11:02.933Z,19.84
2023-03-04T07:12:04.010Z,19.88
2023-03-04T07:13:04.057Z,19.85
2023-03-04T07:14:03.118Z,19.87
2023-03-04T07:15:04.206Z,19.85
2023-03-04T07:16:03.256Z,19.82
2023-03-04T07:17:04.316Z,19.88
2023-03-04T07:18:04.388Z,19.84
2023-03-04T07:19:04.425Z,19.84
2023-03-04T07:20:03.518Z,19.84
2023-03-04T07:21:03.556Z,19.85
2023-03-04T07:22:04.617Z,19.84
2023-03-04T07:23:03.693Z,19.78
2023-03-04T07:24:03.786Z,19.84
2023-03-04T07:25:04.792Z,19.82
2023-03-04T07:26:04.850Z,19.81
2023-03-04T07:27:03.910Z,19.82
2023-03-04T07:28:05.142Z,19.82
2023-03-04T07:29:05.073Z,19.87
2023-03-04T07:30:05.099Z,19.87
2023-03-04T07:31:04.125Z,19.88
2023-03-04T07:32:04.287Z,19.87
2023-03-04T07:33:05.340Z,19.88
2023-03-04T07:34:04.221Z,19.88
2023-03-04T07:35:04.275Z,19.82
2023-03-04T07:36:04.335Z,19.84
2023-03-04T07:37:05.392Z,19.84
2023-03-04T07:38:05.418Z,19.82
2023-03-04T07:39:05.460Z,19.84
2023-03-04T07:40:05.482Z,19.88
2023-03-04T07:41:05.546Z,19.90
2023-03-04T07:42:04.591Z,19.87
2023-03-04T07:43:04.633Z,19.87
2023-03-04T07:44:05.652Z,19.85
2023-03-04T07:45:05.700Z,19.85
2023-03-04T07:46:05.818Z,19.87
2023-03-04T07:47:05.792Z,19.82
2023-03-04T07:48:05.844Z,19.82
2023-03-04T07:49:05.880Z,19.84
2023-03-04T07:50:05.952Z,19.87
2023-03-04T07:51:05.996Z,19.85
2023-03-04T07:52:06.066Z,19.91
2023-03-04T07:53:06.121Z,19.90
2023-03-04T07:54:05.203Z,19.91
2023-03-04T07:55:06.881Z,19.88
2023-03-04T07:56:06.337Z,19.90
2023-03-04T07:57:06.377Z,19.90
2023-03-04T07:58:05.453Z,19.94
2023-03-04T07:59:06.506Z,19.91
2023-03-04T08:00:07.172Z,19.95
2023-03-04T08:01:06.616Z,19.94
2023-03-04T08:02:06.729Z,19.91
2023-03-04T08:03:06.730Z,19.92
2023-03-04T08:04:06.848Z,19.92
2023-03-04T08:05:05.845Z,19.95
2023-03-04T08:06:06.903Z,19.98
2023-03-04T08:07:05.958Z,19.97
2023-03-04T08:08:07.005Z,19.95
2023-03-04T08:09:07.051Z,20.01
2023-03-04T08:10:07.112Z,19.95
2023-03-04T08:11:07.214Z,19.98
2023-03-04T08:12:07.233Z,20.00
2023-03-04T08:13:07.292Z,19.98
2023-03-04T08:14:07.363Z,20.02
2023-03-04T08:15:07.422Z,19.98
2023-03-04T08:16:07.570Z,20.01
2023-03-04T08:17:07.538Z,20.02
2023-03-04T08:18:07.608Z,20.02
2023-03-04T08:19:07.665Z,20.04
2023-03-04T08:20:07.728Z,20.07
2023-03-04T08:21:06.795Z,20.04
2023-03-04T08:22:07.846Z,20.09
2023-03-04T08:23:06.896Z,20.19
2023-03-04T08:24:08.532Z,20.33
2023-03-04T08:25:07.006Z,20.39
2023-03-04T08:26:08.043Z,20.46
2023-03-04T08:27:08.097Z,20.49
2023-03-04T08:28:07.122Z,20.63
2023-03-04T08:29:07.173Z,20.66
2023-03-04T08:30:07.177Z,20.73
2023-03-04T08:31:08.438Z,20.77
2023-03-04T08:32:07.364Z,20.83
2023-03-04T08:33:08.231Z,20.87
2023-03-04T08:34:08.255Z,20.93
2023-03-04T08:35:08.255Z,20.95
2023-03-04T08:36:07.245Z,21.00
2023-03-04T08:37:08.246Z,21.00
2023-03-04T08:38:07.252Z,21.07
2023-03-04T08:39:08.242Z,21.11
2023-03-04T08:40:08.275Z,21.18
2023-03-04T08:41:08.316Z,21.21
2023-03-04T08:42:08.326Z,21.25
2023-03-04T08:43:07.403Z,21.28
2023-03-04T08:44:08.433Z,21.32
2023-03-04T08:45:08.503Z,21.38
2023-03-04T08:46:08.595Z,21.42
2023-03-04T08:47:07.645Z,21.48
2023-03-04T08:48:08.681Z,21.51
2023-03-04T08:49:07.732Z,21.53
2023-03-04T08:50:08.789Z,21.59
2023-03-04T08:51:08.846Z,21.60
2023-03-04T08:52:08.894Z,21.66
2023-03-04T08:53:08.953Z,21.69
2023-03-04T08:54:09.004Z,21.72
2023-03-04T08:55:09.043Z,21.76
2023-03-04T08:56:09.105Z,21.79
2023-03-04T08:57:09.137Z,21.80
2023-03-04T08:58:09.210Z,21.83
2023-03-04T08:59:09.277Z,21.89
2023-03-04T09:00:09.245Z,21.92
2023-03-04T09:01:09.283Z,21.92
2023-03-04T09:02:09.316Z,21.95
2023-03-04T09:03:09.323Z,21.97
2023-03-04T09:04:09.346Z,21.99
2023-03-04T09:05:09.376Z,22.04
2023-03-04T09:06:08.383Z,22.03
2023-03-04T09:07:09.391Z,22.08
2023-03-04T09:08:08.415Z,22.08
2023-03-04T09:09:08.402Z,22.10
2023-03-04T09:10:08.426Z,22.11
2023-03-04T09:11:09.421Z,22.14
2023-03-04T09:12:09.437Z,22.20
2023-03-04T09:13:09.419Z,22.20
2023-03-04T09:14:09.456Z,22.21
2023-03-04T09:15:11.829Z,22.23
2023-03-04T09:16:09.443Z,22.21
2023-03-04T09:17:09.409Z,22.28
2023-03-04T09:18:09.405Z,22.30
2023-03-04T09:19:08.404Z,22.34
2023-03-04T09:20:09.382Z,22.35
2023-03-04T09:21:09.380Z,22.40
2023-03-04T09:22:09.380Z,22.40
2023-03-04T09:23:09.360Z,22.41
2023-03-04T09:24:09.362Z,22.44
2023-03-04T09:25:12.893Z,22.45
2023-03-04T09:26:09.340Z,22.50
2023-03-04T09:27:09.356Z,22.48
2023-03-04T09:28:08.365Z,22.48
2023-03-04T09:29:09.320Z,22.54
2023-03-04T09:30:09.351Z,22.51
2023-03-04T09:31:09.345Z,22.55
2023-03-04T09:32:09.337Z,22.59
2023-03-04T09:33:08.401Z,22.66
2023-03-04T09:34:09.289Z,22.66
2023-03-04T09:35:09.302Z,22.68
2023-03-04T09:36:09.304Z,22.71
2023-03-04T09:37:09.289Z,22.73
2023-03-04T09:38:09.286Z,22.73
2023-03-04T09:39:08.254Z,22.76
2023-03-04T09:40:09.250Z,22.78
2023-03-04T09:41:09.260Z,22.82
2023-03-04T09:42:09.312Z,22.88
2023-03-04T09:43:08.321Z,22.86
2023-03-04T09:44:09.327Z,22.88
2023-03-04T09:45:09.360Z,22.93
2023-03-04T09:46:09.497Z,22.92
2023-03-04T09:47:08.400Z,23.00
2023-03-04T09:48:09.441Z,22.96
2023-03-04T09:49:08.450Z,22.99
2023-03-04T09:50:09.496Z,22.99
2023-03-04T09:51:08.476Z,23.02
2023-03-04T09:52:09.492Z,23.05
2023-03-04T09:53:08.528Z,23.05
2023-03-04T09:54:09.537Z,23.07
2023-03-04T09:55:09.544Z,23.12
2023-03-04T09:56:09.550Z,23.10
2023-03-04T09:57:09.558Z,23.12
2023-03-04T09:58:09.552Z,23.20
2023-03-04T09:59:09.560Z,23.17
2023-03-04T10:00:09.575Z,23.20
2023-03-04T10:01:09.557Z,23.24
2023-03-04T10:02:09.573Z,23.23
2023-03-04T10:03:09.585Z,23.21
2023-03-04T10:04:09.549Z,23.26
2023-03-04T10:05:09.538Z,23.27
2023-03-04T10:06:09.544Z,23.26
2023-03-04T10:07:09.558Z,23.24
2023-03-04T10:08:09.588Z,23.33
2023-03-04T10:09:08.640Z,23.30
2023-03-04T10:10:08.682Z,23.43
2023-03-04T10:11:08.749Z,23.46
2023-03-04T10:12:09.795Z,23.40
2023-03-04T10:13:10.476Z,23.48
2023-03-04T10:14:09.895Z,23.53
2023-03-04T10:15:09.851Z,23.50
2023-03-04T10:16:09.860Z,23.56
2023-03-04T10:17:09.869Z,23.51
2023-03-04T10:18:08.848Z,23.58
2023-03-04T10:19:09.839Z,23.62
2023-03-04T10:20:09.884Z,23.61
2023-03-04T10:21:09.799Z,23.68
2023-03-04T10:22:09.790Z,23.60
2023-03-04T10:23:09.802Z,23.64
2023-03-04T10:24:09.781Z,23.60
2023-03-04T10:25:09.792Z,23.68
2023-03-04T10:26:09.834Z,23.67
2023-03-04T10:27:09.767Z,23.77
2023-03-04T10:28:09.750Z,23.69
2023-03-04T10:29:08.747Z,23.72
2023-03-04T10:30:09.735Z,23.74
2023-03-04T10:31:09.788Z,23.79
2023-03-04T10:32:09.767Z,23.77
2023-03-04T10:33:09.716Z,23.77
2023-03-04T10:34:09.736Z,23.71
2023-03-04T10:35:09.702Z,23.82
2023-03-04T10:36:09.681Z,23.78
2023-03-04T10:37:09.821Z,23.84
2023-03-04T10:38:09.718Z,23.86
2023-03-04T10:39:09.672Z,23.85
2023-03-04T10:40:09.677Z,23.95
2023-03-04T10:41:09.668Z,23.95
2023-03-04T10:42:09.855Z,23.92
2023-03-04T10:43:09.675Z,23.98
2023-03-04T10:44:09.656Z,23.98
2023-03-04T10:45:09.628Z,24.01
2023-03-04T10:46:09.669Z,23.98
2023-03-04T10:47:08.611Z,24.04
2023-03-04T10:48:08.611Z,24.01
2023-03-04T10:49:08.605Z,24.08
2023-03-04T10:50:08.626Z,24.09
2023-03-04T10:51:08.612Z,24.11
2023-03-04T10:52:09.678Z,24.12
2023-03-04T10:53:09.734Z,24.09
2023-03-04T10:54:09.802Z,24.11
2023-03-04T10:55:08.862Z,24.06
2023-03-04T10:56:09.915Z,24.13
2023-03-04T10:57:09.993Z,24.08
2023-03-04T10:58:09.025Z,24.13
2023-03-04T10:59:10.104Z,24.20
2023-03-04T11:00:09.121Z,24.16
2023-03-04T11:01:09.270Z,24.15
2023-03-04T11:02:10.214Z,24.20
2023-03-04T11:03:10.266Z,24.15
2023-03-04T11:04:10.345Z,24.23
2023-03-04T11:05:10.347Z,24.20
2023-03-04T11:06:10.403Z,24.19
2023-03-04T11:07:10.439Z,24.23
2023-03-04T11:08:10.473Z,24.23
2023-03-04T11:09:10.516Z,24.22
2023-03-04T11:10:10.564Z,24.29
2023-03-04T11:11:10.614Z,24.23
2023-03-04T11:12:09.649Z,24.23
2023-03-04T11:13:10.709Z,24.23
2023-03-04T11:14:09.776Z,24.26
2023-03-04T11:15:10.805Z,24.23
2023-03-04T11:16:10.866Z,24.26
2023-03-04T11:17:10.882Z,24.30
2023-03-04T11:18:10.932Z,24.27
2023-03-04T11:19:10.970Z,24.32
2023-03-04T11:20:10.998Z,24.32
2023-03-04T11:21:11.388Z,24.43
2023-03-04T11:22:11.082Z,24.36
2023-03-04T11:23:11.075Z,24.37
2023-03-04T11:24:25.681Z,24.36
2023-03-04T11:25:11.098Z,24.37
2023-03-04T11:26:11.080Z,24.36
2023-03-04T11:27:10.067Z,24.42
2023-03-04T11:28:11.621Z,24.44
2023-03-04T11:29:10.050Z,24.40
2023-03-04T11:30:11.047Z,24.40
2023-03-04T11:31:11.052Z,24.49
2023-03-04T11:32:11.172Z,24.49
2023-03-04T11:33:11.032Z,24.46
2023-03-04T11:34:13.526Z,24.44
2023-03-04T11:35:11.011Z,24.52
2023-03-04T11:36:10.033Z,24.50
2023-03-04T11:37:11.014Z,24.47
2023-03-04T11:38:11.055Z,24.52
2023-03-04T11:39:11.006Z,24.52
2023-03-04T11:40:11.017Z,24.56
2023-03-04T11:41:09.993Z,24.53
2023-03-04T11:42:10.990Z,24.59
2023-03-04T11:43:11.074Z,24.57
2023-03-04T11:44:10.981Z,24.57
2023-03-04T11:45:26.168Z,24.53
2023-03-04T11:46:11.022Z,24.54
2023-03-04T11:47:10.951Z,24.50
2023-03-04T11:48:10.964Z,24.61
2023-03-04T11:49:10.953Z,24.47
2023-03-04T11:50:09.935Z,24.57
2023-03-04T11:51:12.882Z,24.56
2023-03-04T11:52:09.939Z,24.54
2023-03-04T11:53:10.939Z,24.54
2023-03-04T11:54:10.950Z,24.60
2023-03-04T11:55:10.911Z,24.56
2023-03-04T11:56:10.905Z,24.52
2023-03-04T11:57:11.856Z,24.53
2023-03-04T11:58:10.906Z,24.50
2023-03-04T11:59:10.886Z,24.44
2023-03-04T12:00:10.887Z,24.61
2023-03-04T12:01:10.868Z,24.57
2023-03-04T12:02:10.881Z,24.49
2023-03-04T12:03:12.968Z,24.59
2023-03-04T12:04:11.053Z,24.61
2023-03-04T12:05:10.849Z,24.56
2023-03-04T12:06:10.864Z,24.60
2023-03-04T12:07:10.830Z,24.57
2023-03-04T12:08:10.851Z,24.49
2023-03-04T12:09:09.817Z,24.56
2023-03-04T12:10:10.864Z,24.60
2023-03-04T12:11:10.809Z,24.60
2023-03-04T12:12:10.799Z,24.63
2023-03-04T12:13:10.837Z,24.59
2023-03-04T12:14:10.825Z,24.59
2023-03-04T12:15:10.781Z,24.49
2023-03-04T12:16:10.856Z,24.52
2023-03-04T12:17:09.756Z,24.49
2023-03-04T12:18:10.768Z,24.60
2023-03-04T12:19:10.747Z,24.59
2023-03-04T12:20:10.753Z,24.54
2023-03-04T12:21:10.735Z,24.59
2023-03-04T12:22:10.723Z,24.54
2023-03-04T12:23:10.731Z,24.54
2023-03-04T12:24:10.708Z,24.59
2023-03-04T12:25:09.709Z,24.60
2023-03-04T12:26:10.728Z,24.53
2023-03-04T12:27:10.713Z,24.47
2023-03-04T12:28:10.726Z,24.56
2023-03-04T12:29:10.701Z,24.57
2023-03-04T12:30:10.678Z,24.53
2023-03-04T12:31:10.720Z,24.64
2023-03-04T12:32:10.703Z,24.57
2023-03-04T12:33:10.695Z,24.59
2023-03-04T12:34:10.659Z,24.52
2023-03-04T12:35:10.660Z,24.57
2023-03-04T12:36:10.634Z,24.59
2023-03-04T12:37:09.639Z,24.54
2023-03-04T12:38:09.633Z,24.53
2023-03-04T12:39:10.693Z,24.50
2023-03-04T12:40:10.773Z,24.47
2023-03-04T12:41:10.792Z,24.54
2023-03-04T12:42:10.253Z,24.54
2023-03-04T12:43:10.913Z,24.43
2023-03-04T12:44:10.942Z,24.44
2023-03-04T12:45:11.234Z,24.52
2023-03-04T12:46:10.111Z,24.49
2023-03-04T12:47:11.099Z,24.52
2023-03-04T12:48:11.141Z,24.44
2023-03-04T12:49:10.208Z,24.42
2023-03-04T12:50:11.239Z,24.42
2023-03-04T12:51:11.281Z,24.47
2023-03-04T12:52:11.346Z,24.53
2023-03-04T12:53:11.409Z,24.37